sensor_id;sensor_type;location;lat;lon;timestamp;P1;durP1;ratioP1;P2;durP2;ratioP2
42514;SDS011;28144;49.920;18.730;2022-12-29T00:01:28;11.38;;;4.43;;
42514;SDS011;28144;49.920;18.730;2022-12-29T00:03:55;12.40;;;4.28;;
42514;SDS011;28144;49.920;18.730;2022-12-29T00:06:20;9.87;;;4.40;;
42514;SDS011;28144;49.920;18.730;2022-12-29T00:08:46;10.00;;;4.10;;
42514;SDS011;28144;49.920;18.730;2022-12-29T00:11:16;9.07;;;3.83;;
42514;SDS011;28144;49.920;18.730;2022-12-29T00:13:43;10.57;;;4.67;;
42514;SDS011;28144;49.920;18.730;2022-12-29T00:16:32;14.13;;;3.93;;
42514;SDS011;28144;49.920;18.730;2022-12-29T00:18:59;8.50;;;4.10;;
42514;SDS011;28144;49.920;18.730;2022-12-29T00:21:25;11.15;;;3.97;;
42514;SDS011;28144;49.920;18.730;2022-12-29T00:24:14;8.57;;;4.07;;
42514;SDS011;28144;49.920;18.730;2022-12-29T00:29:47;6.77;;;3.33;;
42514;SDS011;28144;49.920;18.730;2022-12-29T00:32:32;7.70;;;3.23;;
42514;SDS011;28144;49.920;18.730;2022-12-29T00:35:23;7.03;;;3.33;;
42514;SDS011;28144;49.920;18.730;2022-12-29T00:37:53;7.43;;;3.28;;
42514;SDS011;28144;49.920;18.730;2022-12-29T00:40:40;6.75;;;3.30;;
42514;SDS011;28144;49.920;18.730;2022-12-29T00:43:24;10.47;;;3.10;;
42514;SDS011;28144;49.920;18.730;2022-12-29T00:46:08;6.57;;;2.80;;
42514;SDS011;28144;49.920;18.730;2022-12-29T00:48:34;5.73;;;2.83;;
42514;SDS011;28144;49.920;18.730;2022-12-29T00:51:18;7.73;;;2.93;;
42514;SDS011;28144;49.920;18.730;2022-12-29T00:53:44;6.03;;;2.80;;
42514;SDS011;28144;49.920;18.730;2022-12-29T00:56:10;7.53;;;2.90;;
42514;SDS011;28144;49.920;18.730;2022-12-29T00:58:36;8.27;;;3.37;;
42514;SDS011;28144;49.920;18.730;2022-12-29T01:01:05;7.53;;;3.33;;
42514;SDS011;28144;49.920;18.730;2022-12-29T01:03:33;5.87;;;2.60;;
42514;SDS011;28144;49.920;18.730;2022-12-29T01:06:00;5.50;;;2.70;;
42514;SDS011;28144;49.920;18.730;2022-12-29T01:10:59;10.43;;;3.40;;
42514;SDS011;28144;49.920;18.730;2022-12-29T01:13:26;5.00;;;2.87;;
42514;SDS011;28144;49.920;18.730;2022-12-29T01:15:52;8.83;;;3.10;;
42514;SDS011;28144;49.920;18.730;2022-12-29T01:18:18;7.35;;;3.15;;
42514;SDS011;28144;49.920;18.730;2022-12-29T01:20:44;10.00;;;3.38;;
42514;SDS011;28144;49.920;18.730;2022-12-29T01:23:10;8.17;;;3.17;;
42514;SDS011;28144;49.920;18.730;2022-12-29T01:25:36;7.40;;;3.10;;
42514;SDS011;28144;49.920;18.730;2022-12-29T01:28:01;5.70;;;3.00;;
42514;SDS011;28144;49.920;18.730;2022-12-29T01:30:27;9.23;;;3.40;;
42514;SDS011;28144;49.920;18.730;2022-12-29T01:32:53;8.03;;;3.30;;
42514;SDS011;28144;49.920;18.730;2022-12-29T01:35:19;7.13;;;3.27;;
42514;SDS011;28144;49.920;18.730;2022-12-29T01:37:44;6.73;;;3.20;;
42514;SDS011;28144;49.920;18.730;2022-12-29T01:40:10;7.37;;;2.90;;
42514;SDS011;28144;49.920;18.730;2022-12-29T01:42:36;5.85;;;2.97;;
42514;SDS011;28144;49.920;18.730;2022-12-29T01:45:03;6.90;;;3.27;;
42514;SDS011;28144;49.920;18.730;2022-12-29T01:52:44;7.77;;;3.13;;
42514;SDS011;28144;49.920;18.730;2022-12-29T01:55:17;7.13;;;3.33;;
42514;SDS011;28144;49.920;18.730;2022-12-29T01:57:43;9.00;;;4.20;;
42514;SDS011;28144;49.920;18.730;2022-12-29T02:00:12;9.17;;;4.50;;
42514;SDS011;28144;49.920;18.730;2022-12-29T02:02:39;15.05;;;6.30;;
42514;SDS011;28144;49.920;18.730;2022-12-29T02:05:13;15.67;;;7.10;;
42514;SDS011;28144;49.920;18.730;2022-12-29T02:07:50;18.97;;;8.37;;
42514;SDS011;28144;49.920;18.730;2022-12-29T02:12:42;22.75;;;8.25;;
42514;SDS011;28144;49.920;18.730;2022-12-29T02:15:08;20.13;;;8.13;;
42514;SDS011;28144;49.920;18.730;2022-12-29T02:34:12;21.63;;;7.30;;
42514;SDS011;28144;49.920;18.730;2022-12-29T02:39:40;18.73;;;7.37;;
42514;SDS011;28144;49.920;18.730;2022-12-29T02:45:17;19.57;;;8.40;;
42514;SDS011;28144;49.920;18.730;2022-12-29T02:50:40;16.80;;;6.40;;
42514;SDS011;28144;49.920;18.730;2022-12-29T02:53:13;15.27;;;7.00;;
42514;SDS011;28144;49.920;18.730;2022-12-29T02:55:48;15.60;;;7.07;;
42514;SDS011;28144;49.920;18.730;2022-12-29T02:58:18;18.00;;;7.23;;
42514;SDS011;28144;49.920;18.730;2022-12-29T03:12:14;15.33;;;5.63;;
42514;SDS011;28144;49.920;18.730;2022-12-29T03:15:10;14.63;;;5.40;;
42514;SDS011;28144;49.920;18.730;2022-12-29T03:20:55;12.17;;;5.03;;
42514;SDS011;28144;49.920;18.730;2022-12-29T03:23:42;12.23;;;5.00;;
42514;SDS011;28144;49.920;18.730;2022-12-29T03:26:10;13.13;;;5.00;;
42514;SDS011;28144;49.920;18.730;2022-12-29T03:28:39;17.60;;;5.90;;
42514;SDS011;28144;49.920;18.730;2022-12-29T03:31:08;15.23;;;6.43;;
42514;SDS011;28144;49.920;18.730;2022-12-29T03:33:38;27.77;;;13.10;;
42514;SDS011;28144;49.920;18.730;2022-12-29T03:36:05;30.02;;;13.02;;
42514;SDS011;28144;49.920;18.730;2022-12-29T03:38:40;28.40;;;13.90;;
42514;SDS011;28144;49.920;18.730;2022-12-29T03:41:28;25.40;;;12.47;;
42514;SDS011;28144;49.920;18.730;2022-12-29T03:43:55;28.57;;;12.57;;
42514;SDS011;28144;49.920;18.730;2022-12-29T03:46:21;21.42;;;8.65;;
42514;SDS011;28144;49.920;18.730;2022-12-29T03:48:47;15.83;;;8.50;;
42514;SDS011;28144;49.920;18.730;2022-12-29T03:51:13;20.03;;;8.97;;
42514;SDS011;28144;49.920;18.730;2022-12-29T03:53:38;18.50;;;8.80;;
42514;SDS011;28144;49.920;18.730;2022-12-29T03:56:04;21.30;;;9.37;;
42514;SDS011;28144;49.920;18.730;2022-12-29T03:58:30;22.57;;;8.63;;
42514;SDS011;28144;49.920;18.730;2022-12-29T04:00:56;17.87;;;6.90;;
42514;SDS011;28144;49.920;18.730;2022-12-29T04:03:22;20.00;;;8.30;;
42514;SDS011;28144;49.920;18.730;2022-12-29T04:05:48;20.77;;;8.53;;
42514;SDS011;28144;49.920;18.730;2022-12-29T04:08:13;19.13;;;7.73;;
42514;SDS011;28144;49.920;18.730;2022-12-29T04:10:39;18.37;;;8.13;;
42514;SDS011;28144;49.920;18.730;2022-12-29T04:13:05;14.67;;;7.53;;
42514;SDS011;28144;49.920;18.730;2022-12-29T04:15:31;24.50;;;8.00;;
42514;SDS011;28144;49.920;18.730;2022-12-29T04:17:56;17.90;;;7.27;;
42514;SDS011;28144;49.920;18.730;2022-12-29T04:20:22;17.10;;;6.70;;
42514;SDS011;28144;49.920;18.730;2022-12-29T04:23:07;13.83;;;6.90;;
42514;SDS011;28144;49.920;18.730;2022-12-29T04:25:33;13.07;;;6.07;;
42514;SDS011;28144;49.920;18.730;2022-12-29T04:27:58;17.57;;;5.53;;
42514;SDS011;28144;49.920;18.730;2022-12-29T04:30:24;14.07;;;5.03;;
42514;SDS011;28144;49.920;18.730;2022-12-29T04:32:50;10.13;;;4.33;;
42514;SDS011;28144;49.920;18.730;2022-12-29T04:35:16;16.17;;;4.90;;
42514;SDS011;28144;49.920;18.730;2022-12-29T04:37:42;11.03;;;3.93;;
42514;SDS011;28144;49.920;18.730;2022-12-29T04:40:08;8.73;;;3.90;;
42514;SDS011;28144;49.920;18.730;2022-12-29T04:42:34;9.65;;;3.75;;
42514;SDS011;28144;49.920;18.730;2022-12-29T04:45:00;8.10;;;3.70;;
42514;SDS011;28144;49.920;18.730;2022-12-29T04:47:25;9.33;;;3.60;;
42514;SDS011;28144;49.920;18.730;2022-12-29T04:49:51;7.60;;;3.23;;
42514;SDS011;28144;49.920;18.730;2022-12-29T04:52:17;8.23;;;3.87;;
42514;SDS011;28144;49.920;18.730;2022-12-29T04:54:43;8.27;;;3.67;;
42514;SDS011;28144;49.920;18.730;2022-12-29T04:57:08;8.73;;;3.43;;
42514;SDS011;28144;49.920;18.730;2022-12-29T04:59:34;7.37;;;3.50;;
42514;SDS011;28144;49.920;18.730;2022-12-29T05:02:00;10.60;;;3.10;;
42514;SDS011;28144;49.920;18.730;2022-12-29T05:04:26;8.77;;;2.60;;
42514;SDS011;28144;49.920;18.730;2022-12-29T05:06:51;7.13;;;2.83;;
42514;SDS011;28144;49.920;18.730;2022-12-29T05:09:17;7.53;;;3.00;;
42514;SDS011;28144;49.920;18.730;2022-12-29T05:11:43;5.40;;;2.87;;
42514;SDS011;28144;49.920;18.730;2022-12-29T05:14:09;6.53;;;3.30;;
42514;SDS011;28144;49.920;18.730;2022-12-29T05:16:34;8.50;;;3.17;;
42514;SDS011;28144;49.920;18.730;2022-12-29T05:19:00;9.63;;;2.70;;
42514;SDS011;28144;49.920;18.730;2022-12-29T05:21:26;6.63;;;2.73;;
42514;SDS011;28144;49.920;18.730;2022-12-29T05:23:52;11.03;;;2.73;;
42514;SDS011;28144;49.920;18.730;2022-12-29T05:26:17;9.67;;;3.00;;
42514;SDS011;28144;49.920;18.730;2022-12-29T05:28:43;8.53;;;2.90;;
42514;SDS011;28144;49.920;18.730;2022-12-29T05:31:09;6.57;;;2.73;;
42514;SDS011;28144;49.920;18.730;2022-12-29T05:33:35;6.67;;;2.40;;
42514;SDS011;28144;49.920;18.730;2022-12-29T05:36:04;5.93;;;2.87;;
42514;SDS011;28144;49.920;18.730;2022-12-29T05:38:31;6.13;;;3.10;;
42514;SDS011;28144;49.920;18.730;2022-12-29T05:40:56;5.27;;;2.80;;
42514;SDS011;28144;49.920;18.730;2022-12-29T05:43:22;8.13;;;3.13;;
42514;SDS011;28144;49.920;18.730;2022-12-29T05:45:48;8.23;;;3.40;;
42514;SDS011;28144;49.920;18.730;2022-12-29T05:50:40;8.73;;;2.97;;
42514;SDS011;28144;49.920;18.730;2022-12-29T05:53:06;6.23;;;3.37;;
42514;SDS011;28144;49.920;18.730;2022-12-29T05:55:32;8.50;;;3.00;;
42514;SDS011;28144;49.920;18.730;2022-12-29T05:57:58;5.50;;;2.60;;
42514;SDS011;28144;49.920;18.730;2022-12-29T06:00:23;6.27;;;3.30;;
42514;SDS011;28144;49.920;18.730;2022-12-29T06:02:49;7.27;;;2.83;;
42514;SDS011;28144;49.920;18.730;2022-12-29T06:05:15;8.27;;;2.90;;
42514;SDS011;28144;49.920;18.730;2022-12-29T06:07:41;7.00;;;2.83;;
42514;SDS011;28144;49.920;18.730;2022-12-29T06:10:07;4.03;;;2.40;;
42514;SDS011;28144;49.920;18.730;2022-12-29T06:12:33;6.50;;;3.00;;
42514;SDS011;28144;49.920;18.730;2022-12-29T06:14:58;4.83;;;2.70;;
42514;SDS011;28144;49.920;18.730;2022-12-29T06:17:24;9.47;;;2.90;;
42514;SDS011;28144;49.920;18.730;2022-12-29T06:19:50;5.93;;;2.90;;
42514;SDS011;28144;49.920;18.730;2022-12-29T06:22:15;6.57;;;3.17;;
42514;SDS011;28144;49.920;18.730;2022-12-29T06:24:41;6.03;;;2.73;;
42514;SDS011;28144;49.920;18.730;2022-12-29T06:27:07;7.37;;;2.70;;
42514;SDS011;28144;49.920;18.730;2022-12-29T06:29:33;10.47;;;3.07;;
42514;SDS011;28144;49.920;18.730;2022-12-29T06:32:00;19.67;;;4.90;;
42514;SDS011;28144;49.920;18.730;2022-12-29T06:34:26;8.23;;;3.00;;
42514;SDS011;28144;49.920;18.730;2022-12-29T06:36:52;9.55;;;2.50;;
42514;SDS011;28144;49.920;18.730;2022-12-29T06:39:18;10.80;;;3.37;;
42514;SDS011;28144;49.920;18.730;2022-12-29T06:41:44;9.32;;;3.63;;
42514;SDS011;28144;49.920;18.730;2022-12-29T06:44:10;6.23;;;3.23;;
42514;SDS011;28144;49.920;18.730;2022-12-29T06:46:36;9.18;;;3.38;;
42514;SDS011;28144;49.920;18.730;2022-12-29T06:49:02;9.63;;;3.37;;
42514;SDS011;28144;49.920;18.730;2022-12-29T06:51:28;8.40;;;3.60;;
42514;SDS011;28144;49.920;18.730;2022-12-29T06:53:54;8.53;;;3.10;;
42514;SDS011;28144;49.920;18.730;2022-12-29T06:56:20;9.60;;;3.58;;
42514;SDS011;28144;49.920;18.730;2022-12-29T06:58:46;8.07;;;3.60;;
42514;SDS011;28144;49.920;18.730;2022-12-29T07:01:12;12.77;;;4.63;;
42514;SDS011;28144;49.920;18.730;2022-12-29T07:03:38;8.10;;;3.10;;
42514;SDS011;28144;49.920;18.730;2022-12-29T07:06:04;7.97;;;3.53;;
42514;SDS011;28144;49.920;18.730;2022-12-29T07:08:30;16.93;;;5.23;;
42514;SDS011;28144;49.920;18.730;2022-12-29T07:10:56;14.33;;;4.63;;
42514;SDS011;28144;49.920;18.730;2022-12-29T07:13:21;11.77;;;4.37;;
42514;SDS011;28144;49.920;18.730;2022-12-29T07:15:47;9.60;;;3.77;;
42514;SDS011;28144;49.920;18.730;2022-12-29T07:18:13;6.43;;;3.53;;
42514;SDS011;28144;49.920;18.730;2022-12-29T07:20:39;5.57;;;3.50;;
42514;SDS011;28144;49.920;18.730;2022-12-29T07:23:04;8.93;;;3.73;;
42514;SDS011;28144;49.920;18.730;2022-12-29T07:25:31;8.95;;;4.35;;
42514;SDS011;28144;49.920;18.730;2022-12-29T07:27:57;8.53;;;3.87;;
42514;SDS011;28144;49.920;18.730;2022-12-29T07:30:23;6.22;;;3.75;;
42514;SDS011;28144;49.920;18.730;2022-12-29T07:32:48;9.03;;;3.50;;
42514;SDS011;28144;49.920;18.730;2022-12-29T07:35:14;7.75;;;3.67;;
42514;SDS011;28144;49.920;18.730;2022-12-29T07:37:40;5.70;;;3.40;;
42514;SDS011;28144;49.920;18.730;2022-12-29T07:40:06;7.43;;;3.70;;
42514;SDS011;28144;49.920;18.730;2022-12-29T07:42:33;6.18;;;3.83;;
42514;SDS011;28144;49.920;18.730;2022-12-29T07:44:59;7.93;;;3.58;;
42514;SDS011;28144;49.920;18.730;2022-12-29T07:47:25;12.97;;;5.20;;
42514;SDS011;28144;49.920;18.730;2022-12-29T07:52:17;10.13;;;5.03;;
42514;SDS011;28144;49.920;18.730;2022-12-29T07:54:43;9.00;;;5.25;;
42514;SDS011;28144;49.920;18.730;2022-12-29T07:57:09;11.43;;;5.57;;
42514;SDS011;28144;49.920;18.730;2022-12-29T07:59:35;10.33;;;5.37;;
42514;SDS011;28144;49.920;18.730;2022-12-29T08:02:01;13.63;;;6.20;;
42514;SDS011;28144;49.920;18.730;2022-12-29T08:04:27;13.63;;;6.23;;
42514;SDS011;28144;49.920;18.730;2022-12-29T08:09:22;11.23;;;5.60;;
42514;SDS011;28144;49.920;18.730;2022-12-29T08:11:47;14.03;;;6.20;;
42514;SDS011;28144;49.920;18.730;2022-12-29T08:14:13;14.00;;;6.83;;
42514;SDS011;28144;49.920;18.730;2022-12-29T08:16:39;13.77;;;6.43;;
42514;SDS011;28144;49.920;18.730;2022-12-29T08:19:05;10.82;;;5.97;;
42514;SDS011;28144;49.920;18.730;2022-12-29T08:21:31;12.33;;;5.73;;
42514;SDS011;28144;49.920;18.730;2022-12-29T08:23:59;12.03;;;6.00;;
42514;SDS011;28144;49.920;18.730;2022-12-29T08:26:27;14.10;;;6.70;;
42514;SDS011;28144;49.920;18.730;2022-12-29T08:28:53;13.05;;;5.85;;
42514;SDS011;28144;49.920;18.730;2022-12-29T08:31:20;12.63;;;5.07;;
42514;SDS011;28144;49.920;18.730;2022-12-29T08:33:46;12.02;;;5.40;;
42514;SDS011;28144;49.920;18.730;2022-12-29T08:36:12;12.43;;;5.03;;
42514;SDS011;28144;49.920;18.730;2022-12-29T08:38:40;9.85;;;4.80;;
42514;SDS011;28144;49.920;18.730;2022-12-29T08:41:06;9.70;;;5.53;;
42514;SDS011;28144;49.920;18.730;2022-12-29T08:43:32;12.50;;;5.80;;
42514;SDS011;28144;49.920;18.730;2022-12-29T08:45:58;13.17;;;5.30;;
42514;SDS011;28144;49.920;18.730;2022-12-29T08:48:25;10.38;;;5.35;;
42514;SDS011;28144;49.920;18.730;2022-12-29T08:50:51;7.03;;;4.35;;
42514;SDS011;28144;49.920;18.730;2022-12-29T08:53:18;9.45;;;4.22;;
42514;SDS011;28144;49.920;18.730;2022-12-29T08:55:47;9.50;;;4.55;;
42514;SDS011;28144;49.920;18.730;2022-12-29T08:58:13;7.73;;;4.53;;
42514;SDS011;28144;49.920;18.730;2022-12-29T09:00:43;8.65;;;4.50;;
42514;SDS011;28144;49.920;18.730;2022-12-29T09:03:09;10.23;;;5.17;;
42514;SDS011;28144;49.920;18.730;2022-12-29T09:05:35;12.30;;;5.10;;
42514;SDS011;28144;49.920;18.730;2022-12-29T09:08:01;11.05;;;5.13;;
42514;SDS011;28144;49.920;18.730;2022-12-29T09:10:27;13.03;;;5.80;;
42514;SDS011;28144;49.920;18.730;2022-12-29T09:12:53;14.73;;;5.90;;
42514;SDS011;28144;49.920;18.730;2022-12-29T09:15:18;13.75;;;7.05;;
42514;SDS011;28144;49.920;18.730;2022-12-29T09:17:44;14.23;;;6.00;;
42514;SDS011;28144;49.920;18.730;2022-12-29T09:20:15;11.53;;;6.53;;
42514;SDS011;28144;49.920;18.730;2022-12-29T09:22:42;11.87;;;5.77;;
42514;SDS011;28144;49.920;18.730;2022-12-29T09:25:09;12.38;;;6.25;;
42514;SDS011;28144;49.920;18.730;2022-12-29T09:30:02;10.57;;;5.60;;
42514;SDS011;28144;49.920;18.730;2022-12-29T09:32:31;10.23;;;5.37;;
42514;SDS011;28144;49.920;18.730;2022-12-29T09:35:00;9.33;;;5.60;;
42514;SDS011;28144;49.920;18.730;2022-12-29T09:37:26;13.87;;;5.37;;
42514;SDS011;28144;49.920;18.730;2022-12-29T09:39:54;9.13;;;4.67;;
42514;SDS011;28144;49.920;18.730;2022-12-29T09:42:32;9.23;;;4.83;;
42514;SDS011;28144;49.920;18.730;2022-12-29T09:47:44;9.40;;;5.37;;
42514;SDS011;28144;49.920;18.730;2022-12-29T09:50:15;10.68;;;5.38;;
42514;SDS011;28144;49.920;18.730;2022-12-29T09:55:21;11.23;;;5.60;;
42514;SDS011;28144;49.920;18.730;2022-12-29T09:57:53;10.63;;;5.13;;
42514;SDS011;28144;49.920;18.730;2022-12-29T10:00:21;12.43;;;5.47;;
42514;SDS011;28144;49.920;18.730;2022-12-29T10:02:49;12.10;;;5.73;;
42514;SDS011;28144;49.920;18.730;2022-12-29T10:05:27;16.17;;;6.40;;
42514;SDS011;28144;49.920;18.730;2022-12-29T10:08:01;11.47;;;4.90;;
42514;SDS011;28144;49.920;18.730;2022-12-29T10:10:59;11.43;;;6.37;;
42514;SDS011;28144;49.920;18.730;2022-12-29T10:16:28;14.18;;;5.90;;
42514;SDS011;28144;49.920;18.730;2022-12-29T10:24:44;15.77;;;7.57;;
42514;SDS011;28144;49.920;18.730;2022-12-29T10:27:12;15.40;;;7.00;;
42514;SDS011;28144;49.920;18.730;2022-12-29T10:32:34;9.90;;;6.60;;
42514;SDS011;28144;49.920;18.730;2022-12-29T10:35:11;13.53;;;6.80;;
42514;SDS011;28144;49.920;18.730;2022-12-29T10:40:50;9.32;;;5.78;;
42514;SDS011;28144;49.920;18.730;2022-12-29T10:43:25;10.73;;;5.50;;
42514;SDS011;28144;49.920;18.730;2022-12-29T10:46:14;16.13;;;5.30;;
42514;SDS011;28144;49.920;18.730;2022-12-29T10:48:39;11.40;;;6.13;;
42514;SDS011;28144;49.920;18.730;2022-12-29T10:51:05;9.73;;;5.30;;
42514;SDS011;28144;49.920;18.730;2022-12-29T10:56:26;12.20;;;5.70;;
42514;SDS011;28144;49.920;18.730;2022-12-29T10:58:55;10.50;;;6.17;;
42514;SDS011;28144;49.920;18.730;2022-12-29T11:01:23;9.47;;;5.70;;
42514;SDS011;28144;49.920;18.730;2022-12-29T11:04:02;10.93;;;5.83;;
42514;SDS011;28144;49.920;18.730;2022-12-29T11:06:29;13.10;;;6.33;;
42514;SDS011;28144;49.920;18.730;2022-12-29T11:09:01;12.10;;;5.83;;
42514;SDS011;28144;49.920;18.730;2022-12-29T11:11:35;8.87;;;5.53;;
42514;SDS011;28144;49.920;18.730;2022-12-29T11:14:03;11.50;;;5.68;;
42514;SDS011;28144;49.920;18.730;2022-12-29T11:16:39;10.23;;;5.97;;
42514;SDS011;28144;49.920;18.730;2022-12-29T11:19:19;10.87;;;6.07;;
42514;SDS011;28144;49.920;18.730;2022-12-29T11:21:46;9.77;;;6.00;;
42514;SDS011;28144;49.920;18.730;2022-12-29T11:24:19;9.97;;;5.70;;
42514;SDS011;28144;49.920;18.730;2022-12-29T11:26:55;13.67;;;6.20;;
42514;SDS011;28144;49.920;18.730;2022-12-29T11:29:40;9.37;;;5.87;;
42514;SDS011;28144;49.920;18.730;2022-12-29T11:32:18;10.60;;;6.10;;
42514;SDS011;28144;49.920;18.730;2022-12-29T11:34:48;11.70;;;5.67;;
42514;SDS011;28144;49.920;18.730;2022-12-29T11:37:18;13.23;;;7.05;;
42514;SDS011;28144;49.920;18.730;2022-12-29T11:39:50;11.67;;;6.73;;
42514;SDS011;28144;49.920;18.730;2022-12-29T11:42:21;11.03;;;6.47;;
42514;SDS011;28144;49.920;18.730;2022-12-29T11:44:49;11.93;;;6.53;;
42514;SDS011;28144;49.920;18.730;2022-12-29T11:47:29;12.53;;;7.20;;
42514;SDS011;28144;49.920;18.730;2022-12-29T11:49:57;19.03;;;7.27;;
42514;SDS011;28144;49.920;18.730;2022-12-29T11:52:29;11.93;;;6.73;;
42514;SDS011;28144;49.920;18.730;2022-12-29T11:55:00;12.37;;;6.80;;
42514;SDS011;28144;49.920;18.730;2022-12-29T11:57:27;14.43;;;7.53;;
42514;SDS011;28144;49.920;18.730;2022-12-29T11:59:55;15.05;;;6.97;;
42514;SDS011;28144;49.920;18.730;2022-12-29T12:02:24;13.70;;;7.47;;
42514;SDS011;28144;49.920;18.730;2022-12-29T12:05:08;12.00;;;6.83;;
42514;SDS011;28144;49.920;18.730;2022-12-29T12:07:38;12.97;;;6.90;;
42514;SDS011;28144;49.920;18.730;2022-12-29T12:10:08;11.53;;;6.53;;
42514;SDS011;28144;49.920;18.730;2022-12-29T12:13:02;12.97;;;7.40;;
42514;SDS011;28144;49.920;18.730;2022-12-29T12:15:34;15.40;;;7.23;;
42514;SDS011;28144;49.920;18.730;2022-12-29T12:18:14;16.47;;;7.37;;
42514;SDS011;28144;49.920;18.730;2022-12-29T12:21:36;14.23;;;7.90;;
42514;SDS011;28144;49.920;18.730;2022-12-29T12:29:59;12.93;;;6.67;;
42514;SDS011;28144;49.920;18.730;2022-12-29T12:32:42;12.97;;;6.53;;
42514;SDS011;28144;49.920;18.730;2022-12-29T12:35:13;13.93;;;7.03;;
42514;SDS011;28144;49.920;18.730;2022-12-29T12:40:54;12.87;;;6.60;;
42514;SDS011;28144;49.920;18.730;2022-12-29T12:51:43;12.33;;;6.83;;
42514;SDS011;28144;49.920;18.730;2022-12-29T13:15:32;12.93;;;8.07;;
42514;SDS011;28144;49.920;18.730;2022-12-29T13:21:11;12.53;;;7.23;;
42514;SDS011;28144;49.920;18.730;2022-12-29T13:34:30;18.47;;;7.60;;
42514;SDS011;28144;49.920;18.730;2022-12-29T13:37:15;14.03;;;7.47;;
42514;SDS011;28144;49.920;18.730;2022-12-29T13:39:48;12.07;;;7.20;;
42514;SDS011;28144;49.920;18.730;2022-12-29T13:42:18;13.87;;;6.97;;
42514;SDS011;28144;49.920;18.730;2022-12-29T13:57:14;11.07;;;7.50;;
42514;SDS011;28144;49.920;18.730;2022-12-29T14:05:45;11.93;;;6.67;;
42514;SDS011;28144;49.920;18.730;2022-12-29T14:08:29;11.87;;;6.70;;
42514;SDS011;28144;49.920;18.730;2022-12-29T14:11:00;13.47;;;7.10;;
42514;SDS011;28144;49.920;18.730;2022-12-29T14:13:33;14.40;;;7.50;;
42514;SDS011;28144;49.920;18.730;2022-12-29T14:16:07;15.60;;;8.17;;
42514;SDS011;28144;49.920;18.730;2022-12-29T14:18:41;16.23;;;8.53;;
42514;SDS011;28144;49.920;18.730;2022-12-29T14:21:17;20.87;;;8.97;;
42514;SDS011;28144;49.920;18.730;2022-12-29T14:23:46;18.43;;;7.87;;
42514;SDS011;28144;49.920;18.730;2022-12-29T14:34:27;17.17;;;8.40;;
42514;SDS011;28144;49.920;18.730;2022-12-29T14:37:03;15.30;;;7.43;;
42514;SDS011;28144;49.920;18.730;2022-12-29T14:39:44;12.40;;;7.07;;
42514;SDS011;28144;49.920;18.730;2022-12-29T14:42:55;11.87;;;6.53;;
42514;SDS011;28144;49.920;18.730;2022-12-29T14:45:29;13.27;;;6.33;;
42514;SDS011;28144;49.920;18.730;2022-12-29T15:08:23;14.10;;;7.53;;
42514;SDS011;28144;49.920;18.730;2022-12-29T15:10:55;13.80;;;7.37;;
42514;SDS011;28144;49.920;18.730;2022-12-29T15:14:37;18.65;;;7.90;;
42514;SDS011;28144;49.920;18.730;2022-12-29T15:20:35;16.77;;;7.67;;
42514;SDS011;28144;49.920;18.730;2022-12-29T15:23:25;15.00;;;7.83;;
42514;SDS011;28144;49.920;18.730;2022-12-29T15:26:06;15.67;;;7.83;;
42514;SDS011;28144;49.920;18.730;2022-12-29T15:28:42;13.03;;;7.67;;
42514;SDS011;28144;49.920;18.730;2022-12-29T15:31:13;15.97;;;8.67;;
42514;SDS011;28144;49.920;18.730;2022-12-29T15:33:48;17.83;;;8.37;;
42514;SDS011;28144;49.920;18.730;2022-12-29T15:38:49;18.53;;;9.17;;
42514;SDS011;28144;49.920;18.730;2022-12-29T15:41:42;16.47;;;9.33;;
42514;SDS011;28144;49.920;18.730;2022-12-29T15:44:44;21.37;;;10.30;;
42514;SDS011;28144;49.920;18.730;2022-12-29T15:47:25;22.73;;;11.40;;
42514;SDS011;28144;49.920;18.730;2022-12-29T15:50:15;19.63;;;10.43;;
42514;SDS011;28144;49.920;18.730;2022-12-29T15:53:41;18.23;;;9.53;;
42514;SDS011;28144;49.920;18.730;2022-12-29T15:56:07;18.13;;;10.23;;
42514;SDS011;28144;49.920;18.730;2022-12-29T15:58:43;19.03;;;11.07;;
42514;SDS011;28144;49.920;18.730;2022-12-29T16:01:24;21.47;;;10.20;;
42514;SDS011;28144;49.920;18.730;2022-12-29T16:03:50;20.80;;;11.10;;
42514;SDS011;28144;49.920;18.730;2022-12-29T16:09:05;19.33;;;10.47;;
42514;SDS011;28144;49.920;18.730;2022-12-29T16:11:37;23.90;;;11.27;;
42514;SDS011;28144;49.920;18.730;2022-12-29T16:14:14;21.40;;;10.47;;
42514;SDS011;28144;49.920;18.730;2022-12-29T16:16:42;20.87;;;10.47;;
42514;SDS011;28144;49.920;18.730;2022-12-29T16:19:11;21.02;;;11.18;;
42514;SDS011;28144;49.920;18.730;2022-12-29T16:21:41;27.70;;;12.90;;
42514;SDS011;28144;49.920;18.730;2022-12-29T16:24:14;25.02;;;12.68;;
42514;SDS011;28144;49.920;18.730;2022-12-29T16:26:46;28.17;;;12.90;;
42514;SDS011;28144;49.920;18.730;2022-12-29T16:29:13;37.17;;;13.87;;
42514;SDS011;28144;49.920;18.730;2022-12-29T16:31:50;25.45;;;11.90;;
42514;SDS011;28144;49.920;18.730;2022-12-29T16:34:24;26.87;;;13.33;;
42514;SDS011;28144;49.920;18.730;2022-12-29T16:36:52;29.80;;;13.87;;
42514;SDS011;28144;49.920;18.730;2022-12-29T16:39:38;32.77;;;13.97;;
42514;SDS011;28144;49.920;18.730;2022-12-29T16:45:32;40.27;;;15.93;;
42514;SDS011;28144;49.920;18.730;2022-12-29T16:50:39;34.67;;;18.33;;
42514;SDS011;28144;49.920;18.730;2022-12-29T16:55:46;49.73;;;22.03;;
42514;SDS011;28144;49.920;18.730;2022-12-29T16:58:16;49.03;;;22.80;;
42514;SDS011;28144;49.920;18.730;2022-12-29T17:00:45;44.77;;;21.47;;
42514;SDS011;28144;49.920;18.730;2022-12-29T17:03:12;51.30;;;22.55;;
42514;SDS011;28144;49.920;18.730;2022-12-29T17:05:38;46.25;;;21.73;;
42514;SDS011;28144;49.920;18.730;2022-12-29T17:08:17;48.20;;;20.98;;
42514;SDS011;28144;49.920;18.730;2022-12-29T17:10:49;46.67;;;20.63;;
42514;SDS011;28144;49.920;18.730;2022-12-29T17:13:35;43.80;;;20.03;;
42514;SDS011;28144;49.920;18.730;2022-12-29T17:16:01;42.70;;;19.48;;
42514;SDS011;28144;49.920;18.730;2022-12-29T17:18:28;44.30;;;20.33;;
42514;SDS011;28144;49.920;18.730;2022-12-29T17:20:53;43.70;;;20.17;;
42514;SDS011;28144;49.920;18.730;2022-12-29T17:23:19;45.92;;;18.92;;
42514;SDS011;28144;49.920;18.730;2022-12-29T17:25:45;38.80;;;17.00;;
42514;SDS011;28144;49.920;18.730;2022-12-29T17:30:47;41.47;;;19.43;;
42514;SDS011;28144;49.920;18.730;2022-12-29T17:33:14;44.53;;;21.02;;
42514;SDS011;28144;49.920;18.730;2022-12-29T17:35:41;49.40;;;21.33;;
42514;SDS011;28144;49.920;18.730;2022-12-29T17:38:18;50.00;;;21.52;;
42514;SDS011;28144;49.920;18.730;2022-12-29T17:40:45;47.67;;;22.73;;
42514;SDS011;28144;49.920;18.730;2022-12-29T17:43:12;55.75;;;23.42;;
42514;SDS011;28144;49.920;18.730;2022-12-29T17:45:39;52.57;;;22.93;;
42514;SDS011;28144;49.920;18.730;2022-12-29T17:48:12;49.75;;;22.75;;
42514;SDS011;28144;49.920;18.730;2022-12-29T17:50:40;45.33;;;21.07;;
42514;SDS011;28144;49.920;18.730;2022-12-29T17:53:10;49.05;;;21.88;;
42514;SDS011;28144;49.920;18.730;2022-12-29T17:55:39;52.60;;;22.20;;
42514;SDS011;28144;49.920;18.730;2022-12-29T17:58:25;48.33;;;22.20;;
42514;SDS011;28144;49.920;18.730;2022-12-29T18:00:53;60.08;;;27.23;;
42514;SDS011;28144;49.920;18.730;2022-12-29T18:03:26;128.57;;;49.00;;
42514;SDS011;28144;49.920;18.730;2022-12-29T18:05:53;81.47;;;34.27;;
42514;SDS011;28144;49.920;18.730;2022-12-29T18:08:19;104.03;;;45.08;;